sensor_id;sensor_type;location;lat;lon;timestamp;temperature;humidity
21271;DHT22;10795;50.796;3.860;2022-09-09T00:00:28;15.00;99.90
21271;DHT22;10795;50.796;3.860;2022-09-09T00:05:44;15.40;99.90
21271;DHT22;10795;50.796;3.860;2022-09-09T00:11:12;15.30;99.90
21271;DHT22;10795;50.796;3.860;2022-09-09T00:13:46;15.30;99.90
21271;DHT22;10795;50.796;3.860;2022-09-09T00:19:01;15.30;99.90
21271;DHT22;10795;50.796;3.860;2022-09-09T00:21:37;15.40;99.90
21271;DHT22;10795;50.796;3.860;2022-09-09T00:27:01;15.20;99.90
21271;DHT22;10795;50.796;3.860;2022-09-09T00:29:47;15.40;99.90
21271;DHT22;10795;50.796;3.860;2022-09-09T00:32:17;15.40;99.90
21271;DHT22;10795;50.796;3.860;2022-09-09T00:34:56;15.40;99.90
21271;DHT22;10795;50.796;3.860;2022-09-09T00:37:24;15.30;99.90
21271;DHT22;10795;50.796;3.860;2022-09-09T00:39:53;15.20;99.90
21271;DHT22;10795;50.796;3.860;2022-09-09T00:42:28;15.20;99.90
21271;DHT22;10795;50.796;3.860;2022-09-09T00:48:06;15.40;99.90
21271;DHT22;10795;50.796;3.860;2022-09-09T00:53:30;15.40;99.90
21271;DHT22;10795;50.796;3.860;2022-09-09T00:58:47;15.40;99.90
21271;DHT22;10795;50.796;3.860;2022-09-09T01:01:16;15.20;99.90
21271;DHT22;10795;50.796;3.860;2022-09-09T01:06:35;14.80;99.90
21271;DHT22;10795;50.796;3.860;2022-09-09T01:12:16;15.00;99.90
21271;DHT22;10795;50.796;3.860;2022-09-09T01:15:03;15.10;99.90
21271;DHT22;10795;50.796;3.860;2022-09-09T01:17:46;15.20;99.90
21271;DHT22;10795;50.796;3.860;2022-09-09T01:26:04;15.60;99.90
21271;DHT22;10795;50.796;3.860;2022-09-09T01:28:34;15.60;99.90
21271;DHT22;10795;50.796;3.860;2022-09-09T01:31:09;15.40;99.90
21271;DHT22;10795;50.796;3.860;2022-09-09T01:33:42;15.30;99.90
21271;DHT22;10795;50.796;3.860;2022-09-09T01:36:17;15.40;99.90
21271;DHT22;10795;50.796;3.860;2022-09-09T01:38:49;15.40;99.90
21271;DHT22;10795;50.796;3.860;2022-09-09T01:41:16;15.50;99.90
21271;DHT22;10795;50.796;3.860;2022-09-09T01:43:50;15.30;99.90
21271;DHT22;10795;50.796;3.860;2022-09-09T01:46:18;15.10;99.90
21271;DHT22;10795;50.796;3.860;2022-09-09T01:48:45;15.20;99.90
21271;DHT22;10795;50.796;3.860;2022-09-09T01:51:11;15.10;99.90
21271;DHT22;10795;50.796;3.860;2022-09-09T01:53:39;15.10;99.90
21271;DHT22;10795;50.796;3.860;2022-09-09T02:01:40;15.30;99.90
21271;DHT22;10795;50.796;3.860;2022-09-09T02:04:31;15.30;99.90
21271;DHT22;10795;50.796;3.860;2022-09-09T02:07:00;15.40;99.90
21271;DHT22;10795;50.796;3.860;2022-09-09T02:09:30;15.40;99.90
21271;DHT22;10795;50.796;3.860;2022-09-09T02:12:22;15.30;99.90
21271;DHT22;10795;50.796;3.860;2022-09-09T02:15:04;15.50;99.90
21271;DHT22;10795;50.796;3.860;2022-09-09T02:17:45;15.50;99.90
21271;DHT22;10795;50.796;3.860;2022-09-09T02:20:15;15.40;99.90
21271;DHT22;10795;50.796;3.860;2022-09-09T02:22:53;15.20;99.90
21271;DHT22;10795;50.796;3.860;2022-09-09T02:25:23;15.10;99.90
21271;DHT22;10795;50.796;3.860;2022-09-09T02:27:52;15.10;99.90
21271;DHT22;10795;50.796;3.860;2022-09-09T02:30:19;15.30;99.90
21271;DHT22;10795;50.796;3.860;2022-09-09T02:32:57;15.30;99.90
21271;DHT22;10795;50.796;3.860;2022-09-09T02:35:37;15.40;99.90
21271;DHT22;10795;50.796;3.860;2022-09-09T02:38:07;15.30;99.90
21271;DHT22;10795;50.796;3.860;2022-09-09T02:40:34;15.30;99.90
21271;DHT22;10795;50.796;3.860;2022-09-09T02:43:02;15.40;99.90
21271;DHT22;10795;50.796;3.860;2022-09-09T02:45:44;15.60;99.90
21271;DHT22;10795;50.796;3.860;2022-09-09T02:48:20;15.50;99.90
21271;DHT22;10795;50.796;3.860;2022-09-09T02:51:42;15.60;99.90
21271;DHT22;10795;50.796;3.860;2022-09-09T02:54:32;15.70;99.90
21271;DHT22;10795;50.796;3.860;2022-09-09T02:57:14;15.60;99.90
21271;DHT22;10795;50.796;3.860;2022-09-09T02:59:44;15.40;99.90
21271;DHT22;10795;50.796;3.860;2022-09-09T03:02:11;15.40;99.90
21271;DHT22;10795;50.796;3.860;2022-09-09T03:04:40;15.50;99.90
21271;DHT22;10795;50.796;3.860;2022-09-09T03:07:09;15.70;99.90
21271;DHT22;10795;50.796;3.860;2022-09-09T03:09:38;15.50;99.90
21271;DHT22;10795;50.796;3.860;2022-09-09T03:12:04;15.60;99.90
21271;DHT22;10795;50.796;3.860;2022-09-09T03:14:32;15.50;99.90
21271;DHT22;10795;50.796;3.860;2022-09-09T03:17:05;15.40;99.90
21271;DHT22;10795;50.796;3.860;2022-09-09T03:19:36;15.60;99.90
21271;DHT22;10795;50.796;3.860;2022-09-09T03:22:04;15.60;99.90
21271;DHT22;10795;50.796;3.860;2022-09-09T03:24:32;15.60;99.90
21271;DHT22;10795;50.796;3.860;2022-09-09T03:26:58;15.80;99.90
21271;DHT22;10795;50.796;3.860;2022-09-09T03:29:23;15.70;99.90
21271;DHT22;10795;50.796;3.860;2022-09-09T03:31:53;15.60;99.90
21271;DHT22;10795;50.796;3.860;2022-09-09T03:34:19;15.70;99.90
21271;DHT22;10795;50.796;3.860;2022-09-09T03:36:45;15.70;99.90
21271;DHT22;10795;50.796;3.860;2022-09-09T03:39:14;15.70;99.90
21271;DHT22;10795;50.796;3.860;2022-09-09T03:41:41;15.70;99.90
21271;DHT22;10795;50.796;3.860;2022-09-09T03:44:07;15.70;99.90
21271;DHT22;10795;50.796;3.860;2022-09-09T03:46:38;15.90;99.90
21271;DHT22;10795;50.796;3.860;2022-09-09T03:49:03;16.00;99.90
21271;DHT22;10795;50.796;3.860;2022-09-09T03:51:31;15.90;99.90
21271;DHT22;10795;50.796;3.860;2022-09-09T03:53:57;16.10;99.90
21271;DHT22;10795;50.796;3.860;2022-09-09T03:56:25;15.90;99.90
21271;DHT22;10795;50.796;3.860;2022-09-09T03:58:52;15.80;99.90
21271;DHT22;10795;50.796;3.860;2022-09-09T04:01:18;15.80;99.90
21271;DHT22;10795;50.796;3.860;2022-09-09T04:03:44;15.80;99.90
21271;DHT22;10795;50.796;3.860;2022-09-09T04:06:12;15.70;99.90
21271;DHT22;10795;50.796;3.860;2022-09-09T04:08:41;15.70;99.90
21271;DHT22;10795;50.796;3.860;2022-09-09T04:11:08;15.80;99.90
21271;DHT22;10795;50.796;3.860;2022-09-09T04:13:37;15.80;99.90
21271;DHT22;10795;50.796;3.860;2022-09-09T04:16:09;15.90;99.90
21271;DHT22;10795;50.796;3.860;2022-09-09T04:18:37;15.90;99.90
21271;DHT22;10795;50.796;3.860;2022-09-09T04:21:04;15.90;99.90
21271;DHT22;10795;50.796;3.860;2022-09-09T04:23:32;15.90;99.90
21271;DHT22;10795;50.796;3.860;2022-09-09T04:26:01;15.90;99.90
21271;DHT22;10795;50.796;3.860;2022-09-09T04:28:30;16.20;99.90
21271;DHT22;10795;50.796;3.860;2022-09-09T04:31:03;16.20;99.90
21271;DHT22;10795;50.796;3.860;2022-09-09T04:33:29;16.00;99.90
21271;DHT22;10795;50.796;3.860;2022-09-09T04:35:56;15.90;99.90
21271;DHT22;10795;50.796;3.860;2022-09-09T04:38:24;15.90;99.90
21271;DHT22;10795;50.796;3.860;2022-09-09T04:40:51;15.80;99.90
21271;DHT22;10795;50.796;3.860;2022-09-09T04:43:20;15.60;99.90
21271;DHT22;10795;50.796;3.860;2022-09-09T04:45:48;15.70;99.90
21271;DHT22;10795;50.796;3.860;2022-09-09T04:48:14;15.60;99.90
21271;DHT22;10795;50.796;3.860;2022-09-09T04:50:40;15.50;99.90
21271;DHT22;10795;50.796;3.860;2022-09-09T04:53:08;15.60;99.90
21271;DHT22;10795;50.796;3.860;2022-09-09T04:55:36;15.70;99.90
21271;DHT22;10795;50.796;3.860;2022-09-09T04:58:07;15.70;99.90
21271;DHT22;10795;50.796;3.860;2022-09-09T05:00:37;15.90;99.90
21271;DHT22;10795;50.796;3.860;2022-09-09T05:03:06;15.80;99.90
21271;DHT22;10795;50.796;3.860;2022-09-09T05:05:34;15.80;99.90
21271;DHT22;10795;50.796;3.860;2022-09-09T05:08:07;15.90;99.90
21271;DHT22;10795;50.796;3.860;2022-09-09T05:10:36;15.90;99.90
21271;DHT22;10795;50.796;3.860;2022-09-09T05:13:03;16.00;99.90
21271;DHT22;10795;50.796;3.860;2022-09-09T05:15:30;15.90;99.90
21271;DHT22;10795;50.796;3.860;2022-09-09T05:18:01;15.80;99.90
21271;DHT22;10795;50.796;3.860;2022-09-09T05:20:30;15.80;99.90
21271;DHT22;10795;50.796;3.860;2022-09-09T05:22:56;15.90;99.90
21271;DHT22;10795;50.796;3.860;2022-09-09T05:25:25;15.90;99.90
21271;DHT22;10795;50.796;3.860;2022-09-09T05:27:53;15.90;99.90
21271;DHT22;10795;50.796;3.860;2022-09-09T05:30:19;15.80;99.90
21271;DHT22;10795;50.796;3.860;2022-09-09T05:32:46;15.70;99.90
21271;DHT22;10795;50.796;3.860;2022-09-09T05:35:13;15.80;99.90
21271;DHT22;10795;50.796;3.860;2022-09-09T05:37:39;15.80;99.90
21271;DHT22;10795;50.796;3.860;2022-09-09T05:40:06;16.00;99.90
21271;DHT22;10795;50.796;3.860;2022-09-09T05:42:31;16.10;99.90
21271;DHT22;10795;50.796;3.860;2022-09-09T05:44:58;15.80;99.90
21271;DHT22;10795;50.796;3.860;2022-09-09T05:47:24;16.00;99.90
21271;DHT22;10795;50.796;3.860;2022-09-09T05:49:54;16.00;99.90
21271;DHT22;10795;50.796;3.860;2022-09-09T05:52:20;15.90;99.90
21271;DHT22;10795;50.796;3.860;2022-09-09T05:54:46;15.80;99.90
21271;DHT22;10795;50.796;3.860;2022-09-09T05:57:12;15.90;99.90
21271;DHT22;10795;50.796;3.860;2022-09-09T05:59:38;16.00;99.90
21271;DHT22;10795;50.796;3.860;2022-09-09T06:02:04;16.00;99.90
21271;DHT22;10795;50.796;3.860;2022-09-09T06:04:34;15.80;99.90
21271;DHT22;10795;50.796;3.860;2022-09-09T06:07:01;15.80;99.90
21271;DHT22;10795;50.796;3.860;2022-09-09T06:09:27;15.90;99.90
21271;DHT22;10795;50.796;3.860;2022-09-09T06:11:55;16.00;99.90
21271;DHT22;10795;50.796;3.860;2022-09-09T06:14:25;15.90;99.90
21271;DHT22;10795;50.796;3.860;2022-09-09T06:16:53;16.10;99.90
21271;DHT22;10795;50.796;3.860;2022-09-09T06:19:25;16.00;99.90
21271;DHT22;10795;50.796;3.860;2022-09-09T06:21:54;15.90;99.90
21271;DHT22;10795;50.796;3.860;2022-09-09T06:24:20;16.00;99.90
21271;DHT22;10795;50.796;3.860;2022-09-09T06:26:47;15.90;99.90
21271;DHT22;10795;50.796;3.860;2022-09-09T06:29:19;16.00;99.90
21271;DHT22;10795;50.796;3.860;2022-09-09T06:31:46;16.00;99.90
21271;DHT22;10795;50.796;3.860;2022-09-09T06:34:15;16.10;99.90
21271;DHT22;10795;50.796;3.860;2022-09-09T06:36:46;16.30;99.90
21271;DHT22;10795;50.796;3.860;2022-09-09T06:39:12;16.40;99.90
21271;DHT22;10795;50.796;3.860;2022-09-09T06:41:39;16.40;99.90
21271;DHT22;10795;50.796;3.860;2022-09-09T06:44:08;16.30;99.90
21271;DHT22;10795;50.796;3.860;2022-09-09T06:46:42;16.10;99.90
21271;DHT22;10795;50.796;3.860;2022-09-09T06:49:11;16.20;99.90
21271;DHT22;10795;50.796;3.860;2022-09-09T06:51:37;16.30;99.90
21271;DHT22;10795;50.796;3.860;2022-09-09T06:54:12;16.30;99.90
21271;DHT22;10795;50.796;3.860;2022-09-09T06:56:41;16.20;99.90
21271;DHT22;10795;50.796;3.860;2022-09-09T06:59:15;16.10;99.90
21271;DHT22;10795;50.796;3.860;2022-09-09T07:01:42;16.20;99.90
21271;DHT22;10795;50.796;3.860;2022-09-09T07:04:15;16.10;99.90
21271;DHT22;10795;50.796;3.860;2022-09-09T07:06:46;16.20;99.90
21271;DHT22;10795;50.796;3.860;2022-09-09T07:09:16;16.20;99.90
21271;DHT22;10795;50.796;3.860;2022-09-09T07:11:50;16.30;99.90
21271;DHT22;10795;50.796;3.860;2022-09-09T07:14:19;16.40;99.90
21271;DHT22;10795;50.796;3.860;2022-09-09T07:16:51;16.60;99.90
21271;DHT22;10795;50.796;3.860;2022-09-09T07:19:17;16.50;99.90
21271;DHT22;10795;50.796;3.860;2022-09-09T07:21:45;16.50;99.90
21271;DHT22;10795;50.796;3.860;2022-09-09T07:24:14;16.30;99.90
21271;DHT22;10795;50.796;3.860;2022-09-09T07:26:42;16.20;99.90
21271;DHT22;10795;50.796;3.860;2022-09-09T07:29:10;16.30;99.90
21271;DHT22;10795;50.796;3.860;2022-09-09T07:31:40;16.50;99.90
21271;DHT22;10795;50.796;3.860;2022-09-09T07:34:10;16.50;99.90
21271;DHT22;10795;50.796;3.860;2022-09-09T07:36:38;16.60;99.90
21271;DHT22;10795;50.796;3.860;2022-09-09T07:39:11;16.50;99.90
21271;DHT22;10795;50.796;3.860;2022-09-09T07:41:43;16.50;99.90
21271;DHT22;10795;50.796;3.860;2022-09-09T07:44:21;16.50;99.90
21271;DHT22;10795;50.796;3.860;2022-09-09T07:46:50;16.60;99.90
21271;DHT22;10795;50.796;3.860;2022-09-09T07:49:21;16.60;99.90
21271;DHT22;10795;50.796;3.860;2022-09-09T07:51:48;16.40;99.90
21271;DHT22;10795;50.796;3.860;2022-09-09T07:54:18;16.50;99.90
21271;DHT22;10795;50.796;3.860;2022-09-09T07:56:51;16.40;99.90
21271;DHT22;10795;50.796;3.860;2022-09-09T07:59:19;16.50;99.90
21271;DHT22;10795;50.796;3.860;2022-09-09T08:01:52;16.60;99.90
21271;DHT22;10795;50.796;3.860;2022-09-09T08:04:22;16.40;99.90
21271;DHT22;10795;50.796;3.860;2022-09-09T08:06:55;16.20;99.90
21271;DHT22;10795;50.796;3.860;2022-09-09T08:09:24;16.10;99.90
21271;DHT22;10795;50.796;3.860;2022-09-09T08:12:00;16.30;99.90
21271;DHT22;10795;50.796;3.860;2022-09-09T08:14:28;16.30;99.90
21271;DHT22;10795;50.796;3.860;2022-09-09T08:16:56;16.20;99.90
21271;DHT22;10795;50.796;3.860;2022-09-09T08:19:25;16.20;99.90
21271;DHT22;10795;50.796;3.860;2022-09-09T08:21:52;16.10;99.90
21271;DHT22;10795;50.796;3.860;2022-09-09T08:24:18;16.20;99.90
21271;DHT22;10795;50.796;3.860;2022-09-09T08:26:48;16.30;99.90
21271;DHT22;10795;50.796;3.860;2022-09-09T08:29:17;16.30;99.90
21271;DHT22;10795;50.796;3.860;2022-09-09T08:31:45;16.40;99.90
21271;DHT22;10795;50.796;3.860;2022-09-09T08:34:15;16.30;99.90
21271;DHT22;10795;50.796;3.860;2022-09-09T08:36:43;16.40;99.90
21271;DHT22;10795;50.796;3.860;2022-09-09T08:39:13;16.10;99.90
21271;DHT22;10795;50.796;3.860;2022-09-09T08:55:43;16.20;99.90
21271;DHT22;10795;50.796;3.860;2022-09-09T08:58:17;16.00;99.90
21271;DHT22;10795;50.796;3.860;2022-09-09T09:08:55;15.90;99.90
21271;DHT22;10795;50.796;3.860;2022-09-09T09:11:21;15.90;99.90
21271;DHT22;10795;50.796;3.860;2022-09-09T09:13:57;16.00;99.90
21271;DHT22;10795;50.796;3.860;2022-09-09T09:16:42;16.00;99.90
21271;DHT22;10795;50.796;3.860;2022-09-09T09:19:16;16.00;99.90
21271;DHT22;10795;50.796;3.860;2022-09-09T09:21:48;16.10;99.90
21271;DHT22;10795;50.796;3.860;2022-09-09T09:24:19;16.10;99.90
21271;DHT22;10795;50.796;3.860;2022-09-09T09:26:46;16.10;99.90
21271;DHT22;10795;50.796;3.860;2022-09-09T09:29:15;16.20;99.90
21271;DHT22;10795;50.796;3.860;2022-09-09T09:31:54;16.20;99.90
21271;DHT22;10795;50.796;3.860;2022-09-09T09:34:22;16.20;99.90
21271;DHT22;10795;50.796;3.860;2022-09-09T09:36:58;16.30;99.90
21271;DHT22;10795;50.796;3.860;2022-09-09T09:39:31;16.40;99.90
21271;DHT22;10795;50.796;3.860;2022-09-09T09:42:13;16.40;99.90
21271;DHT22;10795;50.796;3.860;2022-09-09T09:44:41;16.50;99.90
21271;DHT22;10795;50.796;3.860;2022-09-09T09:47:22;16.50;99.90
21271;DHT22;10795;50.796;3.860;2022-09-09T09:50:04;16.60;99.90
21271;DHT22;10795;50.796;3.860;2022-09-09T09:52:41;16.70;99.90
21271;DHT22;10795;50.796;3.860;2022-09-09T09:55:13;16.80;99.90
21271;DHT22;10795;50.796;3.860;2022-09-09T09:57:41;16.80;99.90
21271;DHT22;10795;50.796;3.860;2022-09-09T10:00:19;16.90;99.90
21271;DHT22;10795;50.796;3.860;2022-09-09T10:02:53;17.00;99.90
21271;DHT22;10795;50.796;3.860;2022-09-09T10:05:28;17.10;99.90
21271;DHT22;10795;50.796;3.860;2022-09-09T10:08:05;17.20;99.90
21271;DHT22;10795;50.796;3.860;2022-09-09T10:10:42;17.20;99.90
21271;DHT22;10795;50.796;3.860;2022-09-09T10:13:19;17.30;99.90
21271;DHT22;10795;50.796;3.860;2022-09-09T10:18:42;17.40;99.90
21271;DHT22;10795;50.796;3.860;2022-09-09T10:39:51;17.40;99.90
21271;DHT22;10795;50.796;3.860;2022-09-09T10:42:26;17.50;99.90
21271;DHT22;10795;50.796;3.860;2022-09-09T10:45:28;17.40;99.90
21271;DHT22;10795;50.796;3.860;2022-09-09T10:53:37;17.50;99.90
21271;DHT22;10795;50.796;3.860;2022-09-09T10:56:11;17.50;99.90
21271;DHT22;10795;50.796;3.860;2022-09-09T11:01:37;17.70;99.90
21271;DHT22;10795;50.796;3.860;2022-09-09T11:04:22;17.60;99.90
21271;DHT22;10795;50.796;3.860;2022-09-09T11:06:53;17.60;99.90
21271;DHT22;10795;50.796;3.860;2022-09-09T11:09:32;17.50;99.90
21271;DHT22;10795;50.796;3.860;2022-09-09T11:12:02;17.50;99.90
21271;DHT22;10795;50.796;3.860;2022-09-09T11:14:43;17.60;99.90
21271;DHT22;10795;50.796;3.860;2022-09-09T11:17:18;17.50;99.90
21271;DHT22;10795;50.796;3.860;2022-09-09T11:19:45;17.60;99.90
21271;DHT22;10795;50.796;3.860;2022-09-09T11:24:55;17.60;99.90
21271;DHT22;10795;50.796;3.860;2022-09-09T11:41:01;17.80;99.90
21271;DHT22;10795;50.796;3.860;2022-09-09T11:43:31;17.80;99.90
21271;DHT22;10795;50.796;3.860;2022-09-09T11:46:00;17.80;99.90
21271;DHT22;10795;50.796;3.860;2022-09-09T11:51:04;17.70;99.90
21271;DHT22;10795;50.796;3.860;2022-09-09T11:53:31;17.70;99.90
21271;DHT22;10795;50.796;3.860;2022-09-09T11:56:12;17.80;99.90
21271;DHT22;10795;50.796;3.860;2022-09-09T11:59:01;17.80;99.90
21271;DHT22;10795;50.796;3.860;2022-09-09T12:01:43;17.90;99.90
21271;DHT22;10795;50.796;3.860;2022-09-09T12:06:45;17.80;99.90
21271;DHT22;10795;50.796;3.860;2022-09-09T12:12:29;17.90;99.90
21271;DHT22;10795;50.796;3.860;2022-09-09T12:17:42;18.10;99.90
21271;DHT22;10795;50.796;3.860;2022-09-09T12:20:26;18.30;99.90
21271;DHT22;10795;50.796;3.860;2022-09-09T12:28:21;18.30;99.90
21271;DHT22;10795;50.796;3.860;2022-09-09T12:30:56;18.20;99.90
21271;DHT22;10795;50.796;3.860;2022-09-09T12:33:24;18.10;99.90
21271;DHT22;10795;50.796;3.860;2022-09-09T12:35:55;18.10;99.90
21271;DHT22;10795;50.796;3.860;2022-09-09T12:38:37;18.00;99.90
21271;DHT22;10795;50.796;3.860;2022-09-09T12:41:04;18.10;99.90
21271;DHT22;10795;50.796;3.860;2022-09-09T12:43:30;18.10;99.90
21271;DHT22;10795;50.796;3.860;2022-09-09T12:46:02;18.10;99.90
21271;DHT22;10795;50.796;3.860;2022-09-09T12:48:40;18.20;99.90
21271;DHT22;10795;50.796;3.860;2022-09-09T12:51:32;18.30;99.90
21271;DHT22;10795;50.796;3.860;2022-09-09T12:53:59;18.40;99.90
21271;DHT22;10795;50.796;3.860;2022-09-09T12:56:28;18.60;99.90
21271;DHT22;10795;50.796;3.860;2022-09-09T12:58:55;18.80;99.90
21271;DHT22;10795;50.796;3.860;2022-09-09T13:01:32;19.00;99.90
21271;DHT22;10795;50.796;3.860;2022-09-09T13:04:01;19.30;99.90
21271;DHT22;10795;50.796;3.860;2022-09-09T13:06:31;19.50;99.90
21271;DHT22;10795;50.796;3.860;2022-09-09T13:08:59;19.80;99.90
21271;DHT22;10795;50.796;3.860;2022-09-09T13:11:35;19.90;99.90
21271;DHT22;10795;50.796;3.860;2022-09-09T13:14:02;19.70;99.90
21271;DHT22;10795;50.796;3.860;2022-09-09T13:16:34;19.50;99.90
21271;DHT22;10795;50.796;3.860;2022-09-09T13:19:06;19.40;99.90
21271;DHT22;10795;50.796;3.860;2022-09-09T13:21:34;19.50;99.90
21271;DHT22;10795;50.796;3.860;2022-09-09T13:24:04;19.30;99.90
21271;DHT22;10795;50.796;3.860;2022-09-09T13:26:30;19.40;99.90
21271;DHT22;10795;50.796;3.860;2022-09-09T13:29:14;19.50;99.90
21271;DHT22;10795;50.796;3.860;2022-09-09T13:31:43;19.60;99.90
21271;DHT22;10795;50.796;3.860;2022-09-09T13:34:29;20.00;99.90
21271;DHT22;10795;50.796;3.860;2022-09-09T13:37:16;19.90;99.90
21271;DHT22;10795;50.796;3.860;2022-09-09T13:39:51;19.80;99.90
21271;DHT22;10795;50.796;3.860;2022-09-09T13:42:31;19.90;99.90
21271;DHT22;10795;50.796;3.860;2022-09-09T13:44:59;19.90;99.90
21271;DHT22;10795;50.796;3.860;2022-09-09T13:47:35;20.00;99.90
21271;DHT22;10795;50.796;3.860;2022-09-09T13:50:22;19.70;99.90
21271;DHT22;10795;50.796;3.860;2022-09-09T13:52:50;19.70;99.90
21271;DHT22;10795;50.796;3.860;2022-09-09T13:55:19;19.70;99.90
21271;DHT22;10795;50.796;3.860;2022-09-09T14:00:16;19.70;99.90
21271;DHT22;10795;50.796;3.860;2022-09-09T14:02:42;20.20;99.90
21271;DHT22;10795;50.796;3.860;2022-09-09T14:05:10;20.40;99.90
21271;DHT22;10795;50.796;3.860;2022-09-09T14:07:38;20.50;99.90
21271;DHT22;10795;50.796;3.860;2022-09-09T14:10:06;20.60;99.90
21271;DHT22;10795;50.796;3.860;2022-09-09T14:12:32;20.30;99.90
21271;DHT22;10795;50.796;3.860;2022-09-09T14:14:58;20.50;99.90
21271;DHT22;10795;50.796;3.860;2022-09-09T14:17:25;20.60;99.90
21271;DHT22;10795;50.796;3.860;2022-09-09T14:19:55;20.50;99.90
21271;DHT22;10795;50.796;3.860;2022-09-09T14:22:21;20.20;99.90
21271;DHT22;10795;50.796;3.860;2022-09-09T14:24:47;20.20;99.90
21271;DHT22;10795;50.796;3.860;2022-09-09T14:27:13;20.30;99.90
21271;DHT22;10795;50.796;3.860;2022-09-09T14:29:39;20.20;99.90
21271;DHT22;10795;50.796;3.860;2022-09-09T14:32:05;20.20;99.90
21271;DHT22;10795;50.796;3.860;2022-09-09T14:34:31;20.20;99.90
21271;DHT22;10795;50.796;3.860;2022-09-09T14:36:58;20.30;99.90
21271;DHT22;10795;50.796;3.860;2022-09-09T14:39:24;20.30;99.90
21271;DHT22;10795;50.796;3.860;2022-09-09T14:41:50;20.00;99.90
21271;DHT22;10795;50.796;3.860;2022-09-09T14:44:15;20.00;99.90
21271;DHT22;10795;50.796;3.860;2022-09-09T14:46:41;20.10;99.90
21271;DHT22;10795;50.796;3.860;2022-09-09T14:49:10;20.20;99.90
21271;DHT22;10795;50.796;3.860;2022-09-09T14:51:36;20.20;99.90
21271;DHT22;10795;50.796;3.860;2022-09-09T14:54:02;20.10;99.90
21271;DHT22;10795;50.796;3.860;2022-09-09T14:56:31;20.20;99.90
21271;DHT22;10795;50.796;3.860;2022-09-09T14:58:58;20.00;99.90
21271;DHT22;10795;50.796;3.860;2022-09-09T15:01:26;20.10;99.90
21271;DHT22;10795;50.796;3.860;2022-09-09T15:03:57;20.10;99.90
21271;DHT22;10795;50.796;3.860;2022-09-09T15:06:24;20.30;99.90
21271;DHT22;10795;50.796;3.860;2022-09-09T15:08:52;20.50;99.90
21271;DHT22;10795;50.796;3.860;2022-09-09T15:11:18;20.70;99.90
21271;DHT22;10795;50.796;3.860;2022-09-09T15:13:45;20.40;99.90
21271;DHT22;10795;50.796;3.860;2022-09-09T15:16:17;20.00;99.90
21271;DHT22;10795;50.796;3.860;2022-09-09T15:18:44;19.90;99.90
21271;DHT22;10795;50.796;3.860;2022-09-09T15:21:11;19.90;99.90
21271;DHT22;10795;50.796;3.860;2022-09-09T15:23:38;19.90;99.90
21271;DHT22;10795;50.796;3.860;2022-09-09T15:26:04;19.80;99.90
21271;DHT22;10795;50.796;3.860;2022-09-09T15:28:32;19.80;99.90
21271;DHT22;10795;50.796;3.860;2022-09-09T15:31:12;19.70;99.90
21271;DHT22;10795;50.796;3.860;2022-09-09T15:33:54;19.70;99.90
21271;DHT22;10795;50.796;3.860;2022-09-09T15:36:28;19.70;99.90
21271;DHT22;10795;50.796;3.860;2022-09-09T15:38:54;19.60;99.90
21271;DHT22;10795;50.796;3.860;2022-09-09T15:41:21;19.30;99.90
21271;DHT22;10795;50.796;3.860;2022-09-09T15:43:49;18.60;99.90
21271;DHT22;10795;50.796;3.860;2022-09-09T15:46:28;18.30;99.90
21271;DHT22;10795;50.796;3.860;2022-09-09T15:48:57;17.90;99.90
21271;DHT22;10795;50.796;3.860;2022-09-09T15:51:23;18.00;99.90
21271;DHT22;10795;50.796;3.860;2022-09-09T15:53:57;18.20;99.90
21271;DHT22;10795;50.796;3.860;2022-09-09T15:56:25;18.30;99.90
21271;DHT22;10795;50.796;3.860;2022-09-09T15:58:51;18.40;99.90
21271;DHT22;10795;50.796;3.860;2022-09-09T16:01:18;18.70;99.90
21271;DHT22;10795;50.796;3.860;2022-09-09T16:03:45;18.80;99.90
21271;DHT22;10795;50.796;3.860;2022-09-09T16:06:13;19.00;99.90
21271;DHT22;10795;50.796;3.860;2022-09-09T16:08:41;19.00;99.90
21271;DHT22;10795;50.796;3.860;2022-09-09T16:11:16;19.10;99.90
21271;DHT22;10795;50.796;3.860;2022-09-09T16:13:46;19.30;99.90
21271;DHT22;10795;50.796;3.860;2022-09-09T16:16:13;19.10;99.90
21271;DHT22;10795;50.796;3.860;2022-09-09T16:18:48;19.30;99.90
21271;DHT22;10795;50.796;3.860;2022-09-09T16:21:20;19.70;99.90
21271;DHT22;10795;50.796;3.860;2022-09-09T16:23:46;19.80;99.90
21271;DHT22;10795;50.796;3.860;2022-09-09T16:26:15;19.80;99.90
21271;DHT22;10795;50.796;3.860;2022-09-09T16:28:41;20.00;99.90
21271;DHT22;10795;50.796;3.860;2022-09-09T16:31:18;19.70;99.90
21271;DHT22;10795;50.796;3.860;2022-09-09T16:33:45;19.30;99.90
21271;DHT22;10795;50.796;3.860;2022-09-09T16:36:17;19.50;99.90
21271;DHT22;10795;50.796;3.860;2022-09-09T16:38:43;19.60;99.90
21271;DHT22;10795;50.796;3.860;2022-09-09T16:41:10;19.30;99.90
21271;DHT22;10795;50.796;3.860;2022-09-09T16:43:36;19.10;99.90
21271;DHT22;10795;50.796;3.860;2022-09-09T16:46:16;18.70;99.90
21271;DHT22;10795;50.796;3.860;2022-09-09T16:48:43;18.60;99.90
21271;DHT22;10795;50.796;3.860;2022-09-09T16:53:40;18.50;99.90
21271;DHT22;10795;50.796;3.860;2022-09-09T16:56:12;18.40;99.90
21271;DHT22;10795;50.796;3.860;2022-09-09T16:58:38;18.30;99.90
21271;DHT22;10795;50.796;3.860;2022-09-09T17:01:04;18.30;99.90
21271;DHT22;10795;50.796;3.860;2022-09-09T17:03:31;18.40;99.90
21271;DHT22;10795;50.796;3.860;2022-09-09T17:05:58;18.40;99.90
21271;DHT22;10795;50.796;3.860;2022-09-09T17:08:28;18.40;99.90
21271;DHT22;10795;50.796;3.860;2022-09-09T17:10:57;18.30;99.90
21271;DHT22;10795;50.796;3.860;2022-09-09T17:13:25;18.30;99.90
21271;DHT22;10795;50.796;3.860;2022-09-09T17:15:51;18.20;99.90
21271;DHT22;10795;50.796;3.860;2022-09-09T17:18:17;18.20;99.90
21271;DHT22;10795;50.796;3.860;2022-09-09T17:20:43;18.20;99.90
21271;DHT22;10795;50.796;3.860;2022-09-09T17:23:10;18.00;99.90
21271;DHT22;10795;50.796;3.860;2022-09-09T17:25:37;18.00;99.90
21271;DHT22;10795;50.796;3.860;2022-09-09T17:28:03;17.90;99.90
21271;DHT22;10795;50.796;3.860;2022-09-09T17:30:38;17.80;99.90
21271;DHT22;10795;50.796;3.860;2022-09-09T17:33:04;17.80;99.90
21271;DHT22;10795;50.796;3.860;2022-09-09T17:35:32;17.70;99.90
21271;DHT22;10795;50.796;3.860;2022-09-09T17:37:58;17.70;99.90
21271;DHT22;10795;50.796;3.860;2022-09-09T17:40:24;17.60;99.90
21271;DHT22;10795;50.796;3.860;2022-09-09T17:42:50;17.70;99.90
21271;DHT22;10795;50.796;3.860;2022-09-09T17:45:16;17.60;99.90
21271;DHT22;10795;50.796;3.860;2022-09-09T17:47:42;17.60;99.90
21271;DHT22;10795;50.796;3.860;2022-09-09T17:50:09;17.50;99.90
21271;DHT22;10795;50.796;3.860;2022-09-09T17:52:38;17.50;99.90
21271;DHT22;10795;50.796;3.860;2022-09-09T17:55:05;17.50;99.90
21271;DHT22;10795;50.796;3.860;2022-09-09T17:57:31;17.50;99.90